Time;durP1;ratioP1;P1;durP2;ratioP2;P2;SDS_P1;SDS_P2;PMS_P1;PMS_P2;Temp;Humidity;BMP_temperature;BMP_pressure;BME280_temperature;BME280_humidity;BME280_pressure;Samples;Min_cycle;Max_cycle;Signal;HPM_P1;HPM_P2
2022/05/23 00:02:12;;;;;;;3.90;3.50;;;;;;;;;;6217272;23;20409;-85
2022/05/23 00:05:00;;;;;;;4.10;3.60;;;;;;;;;;6215638;23;20043;-84
2022/05/23 00:07:27;;;;;;;4.70;3.17;;;;;;;;;;6216743;23;20035;-84
2022/05/23 00:09:53;;;;;;;5.30;3.15;;;;;;;;;;6217279;23;20009;-85
2022/05/23 00:12:40;;;;;;;4.90;3.95;;;;;;;;;;6217007;23;20005;-87
2022/05/23 00:15:18;;;;;;;;;;;;;;;;;;;;;
2022/05/23 00:17:47;;;;;;;4.38;3.45;;;;;;;;;;6217092;23;20084;-84
2022/05/23 00:20:19;;;;;;;4.45;3.20;;;;;;;;;;6214850;23;20364;-85
2022/05/23 00:22:55;;;;;;;4.97;3.38;;;;;;;;;;6215046;23;20005;-85
2022/05/23 00:25:48;;;;;;;5.00;3.42;;;;;;;;;;6215492;23;20474;-85
2022/05/23 00:31:20;;;;;;;4.10;3.55;;;;;;;;;;6183824;23;20514;-83
2022/05/23 00:36:38;;;;;;;4.93;3.67;;;;;;;;;;6215361;23;20019;-85
2022/05/23 00:39:08;;;;;;;6.38;4.15;;;;;;;;;;6213927;23;20005;-85
2022/05/23 00:44:26;;;;;;;4.53;3.88;;;;;;;;;;6215253;23;20016;-85
2022/05/23 00:47:06;;;;;;;4.13;3.72;;;;;;;;;;6215171;23;20001;-84
2022/05/23 00:49:34;;;;;;;4.95;3.35;;;;;;;;;;6215240;23;20004;-84
2022/05/23 00:52:38;;;;;;;;;;;;;;;;;;;;;
2022/05/23 00:58:27;;;;;;;6.28;2.90;;;;;;;;;;6183495;23;20008;-84
2022/05/23 01:07:38;;;;;;;;;;;;;;;;;;;;;
2022/05/23 01:10:35;;;;;;;;;;;;;;;;;;;;;
2022/05/23 01:13:34;;;;;;;;;;;;;;;;;;;;;
2022/05/23 01:19:46;;;;;;;;;;;;;;;;;;;;;
2022/05/23 01:22:22;;;;;;;;;;;;;;;;;;;;;
2022/05/23 01:43:40;;;;;;;;;;;;;;;;;;;;;
2022/05/23 01:46:07;;;;;;;6.93;4.90;;;;;;;;;;5934486;24;20087;-85
2022/05/23 01:54:59;;;;;;;;;;;;;;;;;;;;;
2022/05/23 01:57:48;;;;;;;4.28;3.42;;;;;;;;;;6036204;23;20090;-86
2022/05/23 02:12:21;;;;;;;;;;;;;;;;;;;;;
2022/05/23 02:18:03;;;;;;;4.78;3.55;;;;;;;;;;5871563;24;20014;-85
2022/05/23 02:27:10;;;;;;;;;;;;;;;;;;;;;
2022/05/23 02:30:05;;;;;;;4.40;4.00;;;;;;;;;;5972820;23;20082;-84
2022/05/23 02:32:48;;;;;;;;;;;;;;;;;;6032534;23;20132;-84
2022/05/23 02:41:49;;;;;;;;;;;;;;;;;;;;;
2022/05/23 02:57:00;;;;;;;;;;;;;;;;;;;;;
2022/05/23 03:09:30;;;;;;;;;;;;;;;;;;;;;
2022/05/23 03:27:16;;;;;;;5.60;4.23;;;;;;;;;;5997295;23;20033;-85
2022/05/23 03:29:42;;;;;;;5.15;3.95;;;;;;;;;;6141660;23;20226;-85
2022/05/23 03:32:08;;;;;;;4.10;3.63;;;;;;;;;;6215042;23;19996;-84
2022/05/23 03:34:34;;;;;;;6.78;4.20;;;;;;;;;;6215503;23;20114;-84
2022/05/23 03:37:01;;;;;;;4.35;3.90;;;;;;;;;;6215634;23;20082;-84
2022/05/23 03:39:40;;;;;;;;;;;;;;;;;;;;;
2022/05/23 03:45:52;;;;;;;;;;;;;;;;;;;;;
2022/05/23 03:48:18;;;;;;;;;;;;;;;;;;6153646;23;20525;-84
2022/05/23 03:53:59;;;;;;;7.82;4.32;;;;;;;;;;6154003;23;20009;-84
2022/05/23 03:56:42;;;;;;;5.63;4.18;;;;;;;;;;6215363;23;20001;-83
2022/05/23 04:02:24;;;;;;;4.28;3.55;;;;;;;;;;6154009;23;20456;-85
2022/05/23 04:04:52;;;;;;;4.28;3.88;;;;;;;;;;6215649;23;20005;-85
2022/05/23 04:07:18;;;;;;;3.67;3.17;;;;;;;;;;6216399;23;20012;-84
2022/05/23 04:09:45;;;;;;;4.30;3.45;;;;;;;;;;6218168;23;20019;-85
2022/05/23 04:12:11;;;;;;;4.47;3.03;;;;;;;;;;6218438;23;20012;-87
2022/05/23 04:14:37;;;;;;;5.50;4.03;;;;;;;;;;6217629;23;20000;-86
2022/05/23 04:17:03;;;;;;;4.63;3.85;;;;;;;;;;6218150;23;20084;-86
2022/05/23 04:19:39;;;;;;;5.18;3.72;;;;;;;;;;6215619;23;20000;-88
2022/05/23 04:22:08;;;;;;;6.35;4.25;;;;;;;;;;6215778;23;20024;-84
2022/05/23 04:24:37;;;;;;;5.90;4.22;;;;;;;;;;6217704;23;20004;-86
2022/05/23 04:27:06;;;;;;;5.90;4.38;;;;;;;;;;6216879;23;20039;-86
2022/05/23 04:29:32;;;;;;;7.40;4.25;;;;;;;;;;6215698;23;20071;-86
2022/05/23 04:32:00;;;;;;;5.88;5.30;;;;;;;;;;6215149;23;20376;-86
2022/05/23 04:37:31;;;;;;;4.07;3.50;;;;;;;;;;6211698;23;20066;-83
2022/05/23 04:39:57;;;;;;;15.43;13.15;;;;;;;;;;6214983;23;20008;-87
2022/05/23 04:42:23;;;;;;;11.35;10.10;;;;;;;;;;6215231;23;20004;-83
2022/05/23 04:44:51;;;;;;;7.78;5.72;;;;;;;;;;6215042;23;20004;-79
2022/05/23 04:50:04;;;;;;;8.07;6.40;;;;;;;;;;6215447;23;20020;-83
2022/05/23 04:52:30;;;;;;;7.55;6.20;;;;;;;;;;6215402;23;20005;-83
2022/05/23 04:54:56;;;;;;;14.90;13.50;;;;;;;;;;6216015;23;20051;-87
2022/05/23 04:57:23;;;;;;;11.68;9.23;;;;;;;;;;6215595;23;20015;-85
2022/05/23 04:59:49;;;;;;;7.38;6.40;;;;;;;;;;6215909;23;20008;-85
2022/05/23 05:02:17;;;;;;;5.53;4.05;;;;;;;;;;6214659;23;20029;-83
2022/05/23 05:04:49;;;;;;;7.90;4.60;;;;;;;;;;6214569;23;20020;-88
2022/05/23 05:07:22;;;;;;;5.28;3.80;;;;;;;;;;6216301;23;20115;-86
2022/05/23 05:09:51;;;;;;;4.85;3.78;;;;;;;;;;6214882;23;20102;-82
2022/05/23 05:12:17;;;;;;;5.70;5.10;;;;;;;;;;6214510;23;20015;-86
2022/05/23 05:14:43;;;;;;;5.97;4.45;;;;;;;;;;6216518;23;20058;-87
2022/05/23 05:17:12;;;;;;;4.88;4.15;;;;;;;;;;6216059;23;20004;-84
2022/05/23 05:29:00;;;;;;;4.20;3.80;;;;;;;;;;6213226;23;20012;-82
2022/05/23 05:31:29;;;;;;;4.35;3.45;;;;;;;;;;6213910;23;20061;-88
2022/05/23 05:34:00;;;;;;;4.63;3.53;;;;;;;;;;6215149;23;20012;-83
2022/05/23 05:36:30;;;;;;;4.65;3.40;;;;;;;;;;6212990;23;20005;-84
2022/05/23 05:39:00;;;;;;;3.92;3.20;;;;;;;;;;6213776;23;20004;-84
2022/05/23 05:41:45;;;;;;;6.55;3.95;;;;;;;;;;6214881;23;20087;-82
2022/05/23 05:44:17;;;;;;;4.03;3.50;;;;;;;;;;6214819;23;20321;-85
2022/05/23 05:46:47;;;;;;;4.53;3.67;;;;;;;;;;6216256;23;20012;-88
2022/05/23 05:49:16;;;;;;;4.20;3.08;;;;;;;;;;6212793;23;20011;-81
2022/05/23 05:51:53;;;;;;;4.20;3.60;;;;;;;;;;6216030;23;20008;-82
2022/05/23 05:54:22;;;;;;;5.30;3.83;;;;;;;;;;6216048;23;20336;-86
2022/05/23 05:56:49;;;;;;;17.73;4.68;;;;;;;;;;6217348;23;20005;-82
2022/05/23 05:59:21;;;;;;;9.48;4.15;;;;;;;;;;6214634;23;20008;-86
2022/05/23 06:01:47;;;;;;;5.70;3.70;;;;;;;;;;6216057;23;20013;-83
2022/05/23 06:04:13;;;;;;;24.73;5.72;;;;;;;;;;6214229;23;20250;-82
2022/05/23 06:12:11;;;;;;;5.60;4.22;;;;;;;;;;6215332;23;19914;-85
2022/05/23 06:14:38;;;;;;;7.85;4.10;;;;;;;;;;6217789;23;20000;-86
2022/05/23 06:17:07;;;;;;;6.07;4.00;;;;;;;;;;6216011;23;20008;-82
2022/05/23 06:19:46;;;;;;;45.17;38.63;;;;;;;;;;6215995;23;20336;-83
2022/05/23 06:22:13;;;;;;;6.65;5.70;;;;;;;;;;6216294;23;20023;-83
2022/05/23 06:24:39;;;;;;;4.35;3.95;;;;;;;;;;6216504;23;20420;-82
2022/05/23 06:27:06;;;;;;;4.93;3.40;;;;;;;;;;6214022;23;20387;-82
2022/05/23 06:29:33;;;;;;;4.90;3.80;;;;;;;;;;6214131;23;20056;-83
2022/05/23 06:32:01;;;;;;;4.57;3.83;;;;;;;;;;6214766;23;20005;-81
2022/05/23 06:34:33;;;;;;;3.83;3.53;;;;;;;;;;6215919;23;20063;-84
2022/05/23 06:37:17;;;;;;;4.10;3.65;;;;;;;;;;6214348;23;20009;-85
2022/05/23 06:39:43;;;;;;;6.70;3.30;;;;;;;;;;6216050;23;19996;-88
2022/05/23 06:42:11;;;;;;;6.10;4.53;;;;;;;;;;6215135;23;20020;-83
2022/05/23 06:44:58;;;;;;;42.45;31.48;;;;;;;;;;6215768;23;20005;-82
2022/05/23 06:47:26;;;;;;;13.50;12.07;;;;;;;;;;6215574;23;20012;-85
2022/05/23 06:49:53;;;;;;;16.38;14.80;;;;;;;;;;6215757;23;20080;-84
2022/05/23 06:52:19;;;;;;;7.30;6.47;;;;;;;;;;6215336;23;20001;-84
2022/05/23 06:54:45;;;;;;;4.32;3.40;;;;;;;;;;6215797;23;20014;-84
2022/05/23 07:00:20;;;;;;;11.52;8.20;;;;;;;;;;6182048;23;20017;-86
2022/05/23 07:02:49;;;;;;;16.02;10.68;;;;;;;;;;6182997;23;20346;-85
2022/05/23 07:14:11;;;;;;;4.70;3.90;;;;;;;;;;6215468;23;20024;-85
2022/05/23 07:16:36;;;;;;;8.85;7.53;;;;;;;;;;6215207;23;20032;-86
2022/05/23 07:19:04;;;;;;;4.63;3.70;;;;;;;;;;6213441;23;20013;-86
2022/05/23 07:21:31;;;;;;;14.45;9.30;;;;;;;;;;6213104;23;20052;-83
2022/05/23 07:23:58;;;;;;;6.93;5.00;;;;;;;;;;6215509;23;20001;-85
2022/05/23 07:26:24;;;;;;;50.42;42.65;;;;;;;;;;6213605;23;20483;-85
2022/05/23 07:28:53;;;;;;;9.25;6.90;;;;;;;;;;6212965;23;20008;-84
2022/05/23 07:31:29;;;;;;;4.97;4.22;;;;;;;;;;6214798;23;20011;-83
2022/05/23 07:33:59;;;;;;;24.17;16.70;;;;;;;;;;6215398;23;20005;-86
2022/05/23 07:36:45;;;;;;;12.43;9.23;;;;;;;;;;6212897;23;20039;-85
2022/05/23 07:39:14;;;;;;;13.65;7.63;;;;;;;;;;6215029;23;20005;-84
2022/05/23 07:41:41;;;;;;;12.18;7.95;;;;;;;;;;6214835;23;20015;-85
2022/05/23 07:44:08;;;;;;;7.63;5.35;;;;;;;;;;6215098;23;20005;-84
2022/05/23 07:46:34;;;;;;;7.28;5.75;;;;;;;;;;6215012;23;20083;-84
2022/05/23 07:49:00;;;;;;;5.18;3.55;;;;;;;;;;6214604;23;20006;-81
2022/05/23 07:51:30;;;;;;;4.10;3.53;;;;;;;;;;6215070;23;20008;-82
2022/05/23 08:02:17;;;;;;;4.50;4.03;;;;;;;;;;6214802;23;20502;-78
2022/05/23 08:04:43;;;;;;;7.85;4.95;;;;;;;;;;6213972;23;20055;-78
2022/05/23 08:07:10;;;;;;;6.55;5.68;;;;;;;;;;6214815;23;20510;-77
2022/05/23 08:09:39;;;;;;;5.68;4.40;;;;;;;;;;6214053;23;20392;-80
2022/05/23 08:12:06;;;;;;;4.30;3.40;;;;;;;;;;6215065;23;20000;-81
2022/05/23 08:14:32;;;;;;;5.30;3.80;;;;;;;;;;6214432;23;20008;-79
2022/05/23 08:16:59;;;;;;;3.97;3.58;;;;;;;;;;6213193;23;20365;-82
2022/05/23 08:19:25;;;;;;;3.78;3.47;;;;;;;;;;6213920;23;20455;-81
2022/05/23 08:21:55;;;;;;;4.72;4.03;;;;;;;;;;6212422;23;20016;-82
2022/05/23 08:24:37;;;;;;;4.60;4.20;;;;;;;;;;6214147;23;20001;-82
2022/05/23 08:27:04;;;;;;;11.95;10.85;;;;;;;;;;6214353;23;20019;-79
2022/05/23 08:29:31;;;;;;;6.00;3.78;;;;;;;;;;6214304;23;20005;-85
2022/05/23 08:32:00;;;;;;;4.78;3.63;;;;;;;;;;6214334;23;20004;-82
2022/05/23 08:34:26;;;;;;;5.13;4.60;;;;;;;;;;6214084;23;20007;-81
2022/05/23 08:36:52;;;;;;;4.22;3.50;;;;;;;;;;6214679;23;20000;-79
2022/05/23 08:39:19;;;;;;;5.32;3.60;;;;;;;;;;6214874;23;20013;-82
2022/05/23 08:41:46;;;;;;;4.53;3.67;;;;;;;;;;6213924;23;20016;-81
2022/05/23 08:44:23;;;;;;;4.95;3.90;;;;;;;;;;6214813;23;20024;-78
2022/05/23 08:46:52;;;;;;;3.80;3.22;;;;;;;;;;6214470;23;20004;-79
2022/05/23 08:49:37;;;;;;;4.50;4.10;;;;;;;;;;6214045;23;20071;-80
2022/05/23 08:52:22;;;;;;;4.47;3.80;;;;;;;;;;6214871;23;20007;-80
2022/05/23 08:54:51;;;;;;;5.00;3.45;;;;;;;;;;6212764;23;20633;-81
2022/05/23 08:57:24;;;;;;;3.97;3.63;;;;;;;;;;6214345;23;20000;-79
2022/05/23 08:59:52;;;;;;;5.05;4.30;;;;;;;;;;6212681;23;20012;-81
2022/05/23 09:02:30;;;;;;;4.13;3.45;;;;;;;;;;6214340;23;20383;-80
2022/05/23 09:05:05;;;;;;;3.70;3.40;;;;;;;;;;6214623;23;20008;-84
2022/05/23 09:07:34;;;;;;;4.68;3.67;;;;;;;;;;6212544;23;20016;-80
2022/05/23 09:10:04;;;;;;;4.38;3.97;;;;;;;;;;6213343;23;20419;-78
2022/05/23 09:12:30;;;;;;;3.63;3.33;;;;;;;;;;6214497;23;20004;-80
2022/05/23 09:14:57;;;;;;;4.30;3.90;;;;;;;;;;6213671;23;20032;-78
2022/05/23 09:17:29;;;;;;;5.13;4.28;;;;;;;;;;6214294;23;20001;-81
2022/05/23 09:20:00;;;;;;;4.35;3.92;;;;;;;;;;6213937;23;20012;-85
2022/05/23 09:22:47;;;;;;;4.15;3.85;;;;;;;;;;6211500;23;20008;-83
2022/05/23 09:25:16;;;;;;;4.20;3.90;;;;;;;;;;6214114;23;20076;-83
2022/05/23 09:28:00;;;;;;;8.85;4.25;;;;;;;;;;6213582;23;20001;-82
2022/05/23 09:30:27;;;;;;;10.43;7.43;;;;;;;;;;6214197;23;20000;-79
2022/05/23 09:32:53;;;;;;;16.75;14.98;;;;;;;;;;6214057;23;20452;-80
2022/05/23 09:35:22;;;;;;;4.75;3.38;;;;;;;;;;6214558;23;20005;-81
2022/05/23 09:38:07;;;;;;;4.88;3.53;;;;;;;;;;6214634;23;20036;-79
2022/05/23 09:40:37;;;;;;;3.45;2.78;;;;;;;;;;6214180;23;20092;-81
2022/05/23 09:49:04;;;;;;;4.57;3.63;;;;;;;;;;6213635;23;20095;-81
2022/05/23 09:51:30;;;;;;;5.05;3.65;;;;;;;;;;6214827;23;20008;-84
2022/05/23 09:53:59;;;;;;;4.20;3.78;;;;;;;;;;6214053;23;20009;-80
2022/05/23 09:56:30;;;;;;;4.82;3.35;;;;;;;;;;6213859;23;20072;-74
2022/05/23 09:58:58;;;;;;;4.07;3.78;;;;;;;;;;6213277;23;20004;-82
2022/05/23 10:01:28;;;;;;;5.68;3.45;;;;;;;;;;6214219;23;20020;-81
2022/05/23 10:03:54;;;;;;;4.50;3.60;;;;;;;;;;6213844;23;20007;-79
2022/05/23 10:06:32;;;;;;;4.13;3.55;;;;;;;;;;6213697;23;20017;-80
2022/05/23 10:08:59;;;;;;;3.85;3.35;;;;;;;;;;6212875;23;20008;-81
2022/05/23 10:11:25;;;;;;;4.45;4.00;;;;;;;;;;6214608;23;20001;-79
2022/05/23 10:13:56;;;;;;;6.07;4.78;;;;;;;;;;6213952;23;20005;-79
2022/05/23 10:16:41;;;;;;;13.00;11.50;;;;;;;;;;6213914;23;20370;-80
2022/05/23 10:19:09;;;;;;;4.57;3.75;;;;;;;;;;6213804;23;20076;-81
2022/05/23 10:21:37;;;;;;;4.10;3.70;;;;;;;;;;6214082;23;20035;-78
2022/05/23 10:24:03;;;;;;;4.30;3.70;;;;;;;;;;6212317;23;20779;-80
2022/05/23 10:26:30;;;;;;;5.95;4.10;;;;;;;;;;6214302;23;20004;-79
2022/05/23 10:29:15;;;;;;;4.72;4.28;;;;;;;;;;6214765;23;20004;-77
2022/05/23 10:31:47;;;;;;;15.32;13.85;;;;;;;;;;6215704;23;20001;-81
2022/05/23 10:34:13;;;;;;;6.57;5.97;;;;;;;;;;6215953;23;20008;-77
2022/05/23 10:36:45;;;;;;;4.85;3.90;;;;;;;;;;6215836;23;20079;-78
2022/05/23 10:42:07;;;;;;;4.65;4.10;;;;;;;;;;6215478;23;20068;-79
2022/05/23 10:44:33;;;;;;;5.05;4.25;;;;;;;;;;6215483;23;20004;-78
2022/05/23 10:47:18;;;;;;;4.75;4.20;;;;;;;;;;6215304;23;20012;-82
2022/05/23 10:49:51;;;;;;;4.65;4.07;;;;;;;;;;6215357;23;20005;-77
2022/05/23 10:52:28;;;;;;;4.18;3.78;;;;;;;;;;6215466;23;20000;-79
2022/05/23 10:55:12;;;;;;;6.32;4.43;;;;;;;;;;6213506;23;20026;-78
2022/05/23 10:57:59;;;;;;;5.93;4.68;;;;;;;;;;6215617;23;20004;-77
2022/05/23 11:00:33;;;;;;;4.63;4.20;;;;;;;;;;6213804;23;20008;-80
2022/05/23 11:03:01;;;;;;;4.97;4.47;;;;;;;;;;6215192;23;20092;-78
2022/05/23 11:05:31;;;;;;;5.07;4.05;;;;;;;;;;6215396;23;20008;-80
2022/05/23 11:08:09;;;;;;;4.55;4.10;;;;;;;;;;6212954;23;20417;-78
2022/05/23 11:10:45;;;;;;;7.50;6.35;;;;;;;;;;6212894;23;20008;-78
2022/05/23 11:13:23;;;;;;;3.90;3.60;;;;;;;;;;6215312;23;20476;-83
2022/05/23 11:15:52;;;;;;;4.18;3.78;;;;;;;;;;6214989;23;20015;-80
2022/05/23 11:18:22;;;;;;;5.55;4.63;;;;;;;;;;6214297;23;20047;-80
2022/05/23 11:20:50;;;;;;;4.00;3.60;;;;;;;;;;6214289;23;20032;-81
2022/05/23 11:23:35;;;;;;;4.13;3.67;;;;;;;;;;6215029;23;20478;-79
2022/05/23 11:26:25;;;;;;;4.20;3.80;;;;;;;;;;6215417;23;20007;-79
2022/05/23 11:34:43;;;;;;;6.22;4.40;;;;;;;;;;6214496;23;20019;-77
2022/05/23 11:37:42;;;;;;;5.25;4.30;;;;;;;;;;6214270;23;20001;-82
2022/05/23 11:40:07;;;;;;;5.55;4.97;;;;;;;;;;6213495;23;20015;-80
2022/05/23 11:48:55;;;;;;;6.88;5.05;;;;;;;;;;6225824;23;20071;-84
2022/05/23 11:51:23;;;;;;;7.40;5.72;;;;;;;;;;6214717;23;20063;-80
2022/05/23 11:53:59;;;;;;;5.05;4.50;;;;;;;;;;6215991;23;20005;-80
2022/05/23 11:56:37;;;;;;;4.90;4.50;;;;;;;;;;6214979;23;20417;-80
2022/05/23 11:59:04;;;;;;;5.35;4.82;;;;;;;;;;6212947;23;20024;-79
2022/05/23 12:01:31;;;;;;;6.35;5.20;;;;;;;;;;6213497;23;20028;-80
2022/05/23 12:03:57;;;;;;;5.85;5.20;;;;;;;;;;6212133;23;20474;-79
2022/05/23 12:06:30;;;;;;;5.38;4.80;;;;;;;;;;6213732;23;20036;-79
2022/05/23 12:09:17;;;;;;;5.22;4.80;;;;;;;;;;6212335;23;20005;-79
2022/05/23 12:11:43;;;;;;;5.80;4.15;;;;;;;;;;6213620;23;20004;-79
2022/05/23 12:14:12;;;;;;;5.35;4.85;;;;;;;;;;6214491;23;20005;-79
2022/05/23 12:16:41;;;;;;;7.32;5.22;;;;;;;;;;6213750;23;20007;-81
2022/05/23 12:19:29;;;;;;;8.05;4.80;;;;;;;;;;6213312;23;20012;-82
2022/05/23 12:22:14;;;;;;;6.32;5.60;;;;;;;;;;6211325;23;20012;-82
2022/05/23 12:24:59;;;;;;;5.90;5.13;;;;;;;;;;6214380;23;20009;-81
2022/05/23 12:27:24;;;;;;;;;;;;;;;;;;6213516;23;20055;-81
2022/05/23 12:30:10;;;;;;;5.88;5.25;;;;;;;;;;6212778;23;19912;-82
2022/05/23 12:32:38;;;;;;;6.18;5.57;;;;;;;;;;6213975;23;20050;-78
2022/05/23 12:35:07;;;;;;;6.32;5.25;;;;;;;;;;6213793;23;20009;-80
2022/05/23 12:37:39;;;;;;;6.38;5.80;;;;;;;;;;6213355;23;20080;-83
2022/05/23 12:40:23;;;;;;;5.70;5.07;;;;;;;;;;6212052;23;20092;-79
2022/05/23 12:42:55;;;;;;;7.10;5.25;;;;;;;;;;6214061;23;20008;-81
2022/05/23 12:45:28;;;;;;;6.68;5.82;;;;;;;;;;6212391;23;20005;-84
2022/05/23 12:47:54;;;;;;;6.90;5.60;;;;;;;;;;6213830;23;20019;-86
2022/05/23 12:50:31;;;;;;;6.20;5.60;;;;;;;;;;6213422;23;20004;-81
2022/05/23 12:53:16;;;;;;;6.43;5.88;;;;;;;;;;6214424;23;20087;-81
2022/05/23 12:56:00;;;;;;;6.40;5.55;;;;;;;;;;6214257;23;20009;-82
2022/05/23 12:58:39;;;;;;;6.68;6.05;;;;;;;;;;6213838;23;20100;-80
2022/05/23 13:01:07;;;;;;;7.50;5.82;;;;;;;;;;6214220;23;20013;-79
2022/05/23 13:03:43;;;;;;;6.15;5.10;;;;;;;;;;6213508;23;20464;-80
2022/05/23 13:06:19;;;;;;;6.68;5.60;;;;;;;;;;6213092;23;20004;-79
2022/05/23 13:09:05;;;;;;;5.70;5.20;;;;;;;;;;6213270;23;20008;-82
2022/05/23 13:11:37;;;;;;;9.02;5.88;;;;;;;;;;6212778;23;20429;-79
2022/05/23 13:14:04;;;;;;;14.63;13.13;;;;;;;;;;6212897;23;20031;-81
2022/05/23 13:16:31;;;;;;;7.03;5.32;;;;;;;;;;6213504;23;20083;-83
2022/05/23 13:24:57;;;;;;;7.32;6.32;;;;;;;;;;6213157;23;20522;-80
2022/05/23 13:27:26;;;;;;;7.18;6.32;;;;;;;;;;6213653;23;20080;-80
2022/05/23 13:29:53;;;;;;;6.13;5.53;;;;;;;;;;6211436;23;20059;-80
2022/05/23 13:32:20;;;;;;;8.23;6.07;;;;;;;;;;6213598;23;20004;-81
2022/05/23 13:34:49;;;;;;;6.32;5.43;;;;;;;;;;6211978;23;20087;-80
2022/05/23 13:37:25;;;;;;;6.93;5.47;;;;;;;;;;6213552;23;20047;-79
2022/05/23 13:39:51;;;;;;;8.73;6.25;;;;;;;;;;6212161;23;20022;-81
2022/05/23 13:42:19;;;;;;;6.93;6.22;;;;;;;;;;6213085;23;20514;-82
2022/05/23 13:44:45;;;;;;;10.30;7.95;;;;;;;;;;6213196;23;20005;-81
2022/05/23 13:47:12;;;;;;;6.20;5.60;;;;;;;;;;6211358;23;20078;-81
2022/05/23 13:49:47;;;;;;;7.50;6.80;;;;;;;;;;6210512;23;20001;-81
2022/05/23 13:52:16;;;;;;;5.97;5.47;;;;;;;;;;6213581;23;20502;-81
2022/05/23 13:54:48;;;;;;;6.10;5.10;;;;;;;;;;6214791;23;20459;-81
2022/05/23 13:57:28;;;;;;;19.77;15.65;;;;;;;;;;6209575;23;20107;-82
2022/05/23 14:00:14;;;;;;;11.55;10.38;;;;;;;;;;6213348;23;20028;-82
2022/05/23 14:02:52;;;;;;;5.78;5.20;;;;;;;;;;6211132;23;20008;-86
2022/05/23 14:05:19;;;;;;;5.60;5.10;;;;;;;;;;6215171;23;20032;-81
2022/05/23 14:07:45;;;;;;;5.65;4.97;;;;;;;;;;6216147;23;20016;-81
2022/05/23 14:10:17;;;;;;;8.35;5.10;;;;;;;;;;6214900;23;20063;-81
2022/05/23 14:12:46;;;;;;;5.68;5.18;;;;;;;;;;6216105;23;20000;-82
2022/05/23 14:15:13;;;;;;;6.18;4.68;;;;;;;;;;6216099;23;20071;-82
2022/05/23 14:17:43;;;;;;;6.50;5.45;;;;;;;;;;6215560;23;20005;-81
2022/05/23 14:20:15;;;;;;;5.75;5.13;;;;;;;;;;6214741;23;20004;-81
2022/05/23 14:22:41;;;;;;;5.03;4.53;;;;;;;;;;6216036;23;20083;-81
2022/05/23 14:25:16;;;;;;;6.25;4.90;;;;;;;;;;6216006;23;19997;-83
2022/05/23 14:27:48;;;;;;;5.18;4.68;;;;;;;;;;6212437;23;20285;-83
2022/05/23 14:30:27;;;;;;;5.55;5.03;;;;;;;;;;6214915;23;20016;-82
2022/05/23 14:33:12;;;;;;;7.20;4.50;;;;;;;;;;6214428;23;20012;-80
2022/05/23 14:35:39;;;;;;;5.53;4.82;;;;;;;;;;6215332;23;20103;-81
2022/05/23 14:38:24;;;;;;;5.93;4.93;;;;;;;;;;6215101;23;20000;-80
2022/05/23 14:40:50;;;;;;;;;;;;;;;;;;6215072;23;20016;-80
2022/05/23 14:43:20;;;;;;;6.00;4.88;;;;;;;;;;6212992;23;20250;-80
2022/05/23 14:46:05;;;;;;;5.13;4.63;;;;;;;;;;6215516;23;20031;-80
2022/05/23 14:48:32;;;;;;;5.55;4.95;;;;;;;;;;6214324;23;20004;-84
2022/05/23 14:51:13;;;;;;;5.75;5.13;;;;;;;;;;6214932;23;20436;-82
2022/05/23 14:56:26;;;;;;;5.07;4.53;;;;;;;;;;6214941;23;20019;-83
2022/05/23 15:01:39;;;;;;;4.85;4.43;;;;;;;;;;6215041;23;20063;-85
2022/05/23 15:04:06;;;;;;;6.18;5.57;;;;;;;;;;6214344;23;19996;-81
2022/05/23 15:06:32;;;;;;;4.85;4.45;;;;;;;;;;6214740;23;20013;-81
2022/05/23 15:09:01;;;;;;;5.45;4.70;;;;;;;;;;6215034;23;20012;-83
2022/05/23 15:11:37;;;;;;;5.85;4.22;;;;;;;;;;6214807;23;19997;-82
2022/05/23 15:14:04;;;;;;;4.82;4.20;;;;;;;;;;6213685;23;20306;-81
2022/05/23 15:16:32;;;;;;;4.93;4.47;;;;;;;;;;6214339;23;19996;-81
2022/05/23 15:18:59;;;;;;;10.05;7.82;;;;;;;;;;6212135;23;20335;-82
2022/05/23 15:21:54;;;;;;;7.50;6.72;;;;;;;;;;6213273;23;20009;-84
2022/05/23 15:24:27;;;;;;;44.67;33.83;;;;;;;;;;6211370;23;20001;-85
2022/05/23 15:30:10;;;;;;;5.28;4.38;;;;;;;;;;6215632;23;20012;-83
2022/05/23 15:32:51;;;;;;;5.65;4.80;;;;;;;;;;6215685;23;20302;-82
2022/05/23 15:35:21;;;;;;;5.40;4.70;;;;;;;;;;6213748;23;20336;-83
2022/05/23 15:37:48;;;;;;;5.47;4.97;;;;;;;;;;6213822;23;20421;-84
2022/05/23 15:40:15;;;;;;;5.53;5.03;;;;;;;;;;6215657;23;20344;-83
2022/05/23 15:42:42;;;;;;;5.28;4.70;;;;;;;;;;6214295;23;20008;-83
2022/05/23 15:45:11;;;;;;;7.80;4.93;;;;;;;;;;6215707;23;20075;-81
2022/05/23 15:47:39;;;;;;;6.60;4.88;;;;;;;;;;6215194;23;19996;-81
2022/05/23 15:50:09;;;;;;;5.18;4.68;;;;;;;;;;6214965;23;20001;-81
2022/05/23 15:52:35;;;;;;;6.70;6.00;;;;;;;;;;6213897;23;20065;-80
2022/05/23 15:55:02;;;;;;;7.60;5.18;;;;;;;;;;6215412;23;20000;-81
2022/05/23 15:57:30;;;;;;;5.88;4.97;;;;;;;;;;6214272;23;20417;-80
2022/05/23 15:59:57;;;;;;;5.95;5.40;;;;;;;;;;6215348;23;20000;-82
2022/05/23 16:02:23;;;;;;;7.05;5.63;;;;;;;;;;6213859;23;20007;-81
2022/05/23 16:04:58;;;;;;;6.15;5.55;;;;;;;;;;6214484;23;20002;-81
2022/05/23 16:07:29;;;;;;;5.90;5.13;;;;;;;;;;6214436;23;20020;-81
2022/05/23 16:09:56;;;;;;;5.45;4.95;;;;;;;;;;6215545;23;20005;-81
2022/05/23 16:12:39;;;;;;;;;;;;;;;;;;;;;
2022/05/23 16:15:20;;;;;;;;;;;;;;;;;;;;;
2022/05/23 16:20:53;;;;;;;50.67;43.17;;;;;;;;;;6198700;23;20005;-82
2022/05/23 16:23:28;;;;;;;8.88;7.97;;;;;;;;;;6212417;23;20008;-81
2022/05/23 16:29:26;;;;;;;7.00;6.30;;;;;;;;;;6152457;23;20005;-81
2022/05/23 16:32:06;;;;;;;6.40;5.80;;;;;;;;;;6213563;23;20075;-81
2022/05/23 16:37:34;;;;;;;6.78;5.30;;;;;;;;;;6215287;23;20039;-82
2022/05/23 16:40:02;;;;;;;5.93;5.40;;;;;;;;;;6210446;23;20856;-85
2022/05/23 16:42:30;;;;;;;7.63;5.55;;;;;;;;;;6213121;23;20339;-83
2022/05/23 16:44:56;;;;;;;7.55;5.85;;;;;;;;;;6214923;23;20079;-85
2022/05/23 16:47:22;;;;;;;6.60;5.53;;;;;;;;;;6215059;23;20007;-82
2022/05/23 16:49:48;;;;;;;5.50;4.97;;;;;;;;;;6215504;23;20000;-83
2022/05/23 16:52:14;;;;;;;7.32;6.63;;;;;;;;;;6214987;23;20009;-82
2022/05/23 16:54:40;;;;;;;18.73;15.75;;;;;;;;;;6214932;23;20020;-83
2022/05/23 16:57:06;;;;;;;13.77;12.48;;;;;;;;;;6214687;23;20542;-81
2022/05/23 16:59:35;;;;;;;6.68;5.47;;;;;;;;;;6213980;23;20138;-83
2022/05/23 17:02:02;;;;;;;6.22;5.72;;;;;;;;;;6214300;23;20429;-83
2022/05/23 17:04:29;;;;;;;6.53;5.57;;;;;;;;;;6213588;23;20028;-82
2022/05/23 17:06:55;;;;;;;5.60;5.10;;;;;;;;;;6212799;23;20024;-83
2022/05/23 17:09:34;;;;;;;;;;;;;;;;;;;;;
2022/05/23 17:12:02;;;;;;;7.82;6.78;;;;;;;;;;6214884;23;20075;-81
2022/05/23 17:14:36;;;;;;;6.60;5.40;;;;;;;;;;6213936;23;20051;-81
2022/05/23 17:17:02;;;;;;;6.38;5.70;;;;;;;;;;6213776;23;20384;-82
2022/05/23 17:19:29;;;;;;;6.43;5.70;;;;;;;;;;6214921;23;20031;-82
2022/05/23 17:21:55;;;;;;;5.75;5.25;;;;;;;;;;6214695;23;20008;-81
2022/05/23 17:24:21;;;;;;;6.32;5.82;;;;;;;;;;6214742;23;20005;-82
2022/05/23 17:26:47;;;;;;;7.22;6.53;;;;;;;;;;6213489;23;19997;-83
2022/05/23 17:29:29;;;;;;;6.75;5.97;;;;;;;;;;6214500;23;20003;-88
2022/05/23 17:31:57;;;;;;;9.98;7.55;;;;;;;;;;6214897;23;20460;-82
2022/05/23 17:34:29;;;;;;;9.70;6.50;;;;;;;;;;6213100;23;20335;-84
2022/05/23 17:36:56;;;;;;;7.93;6.05;;;;;;;;;;6213476;23;20070;-84
2022/05/23 17:39:25;;;;;;;7.10;5.70;;;;;;;;;;6215569;23;20004;-84
2022/05/23 17:41:51;;;;;;;7.15;6.40;;;;;;;;;;6215743;23;20519;-86
2022/05/23 17:44:17;;;;;;;14.15;6.53;;;;;;;;;;6215588;23;20052;-88
2022/05/23 17:46:43;;;;;;;6.60;5.90;;;;;;;;;;6217398;23;20076;-81
2022/05/23 17:49:10;;;;;;;9.93;8.65;;;;;;;;;;6216881;23;20001;-80
2022/05/23 17:51:36;;;;;;;7.00;6.30;;;;;;;;;;6216651;23;20060;-81
2022/05/23 17:54:02;;;;;;;7.78;6.60;;;;;;;;;;6217359;23;20008;-80
2022/05/23 17:56:28;;;;;;;6.35;5.50;;;;;;;;;;6216564;23;20079;-82
2022/05/23 17:58:54;;;;;;;7.30;6.50;;;;;;;;;;6216706;23;20005;-80
2022/05/23 18:01:24;;;;;;;8.43;6.32;;;;;;;;;;6216447;23;20070;-79
2022/05/23 18:03:50;;;;;;;6.70;6.07;;;;;;;;;;6216826;23;20012;-80
2022/05/23 18:06:16;;;;;;;6.88;6.00;;;;;;;;;;6216451;23;20078;-83
2022/05/23 18:08:42;;;;;;;7.05;6.35;;;;;;;;;;6216677;23;20074;-80
2022/05/23 18:11:11;;;;;;;7.60;6.35;;;;;;;;;;6216693;23;20003;-81
2022/05/23 18:19:10;;;;;;;16.48;14.80;;;;;;;;;;6216442;23;20015;-81
2022/05/23 18:21:43;;;;;;;8.05;7.20;;;;;;;;;;6215222;23;20012;-86
2022/05/23 18:24:09;;;;;;;8.52;7.15;;;;;;;;;;6216486;23;20000;-82
2022/05/23 18:26:38;;;;;;;7.25;6.65;;;;;;;;;;6214930;23;20079;-80
2022/05/23 18:29:04;;;;;;;8.00;6.70;;;;;;;;;;6216378;23;20059;-80
2022/05/23 18:31:33;;;;;;;9.73;6.95;;;;;;;;;;6215267;23;20424;-82
2022/05/23 18:33:59;;;;;;;11.52;7.10;;;;;;;;;;6216254;23;20005;-82
2022/05/23 18:36:25;;;;;;;12.65;8.18;;;;;;;;;;6216571;23;20004;-84
2022/05/23 18:38:51;;;;;;;9.98;8.30;;;;;;;;;;6216443;23;20058;-82
2022/05/23 18:41:18;;;;;;;10.57;7.88;;;;;;;;;;6216053;23;20137;-82
2022/05/23 18:43:44;;;;;;;10.05;7.18;;;;;;;;;;6216135;23;20138;-81
2022/05/23 18:46:17;;;;;;;11.25;7.63;;;;;;;;;;6215828;23;20024;-80
2022/05/23 18:51:32;;;;;;;11.20;8.90;;;;;;;;;;6215716;23;20020;-82
2022/05/23 18:54:00;;;;;;;9.35;8.23;;;;;;;;;;6215798;23;20000;-82
2022/05/23 18:56:26;;;;;;;8.90;8.00;;;;;;;;;;6215669;23;20012;-80
2022/05/23 18:58:56;;;;;;;9.10;8.02;;;;;;;;;;6216033;23;20482;-84
2022/05/23 19:01:22;;;;;;;26.08;23.33;;;;;;;;;;6214425;23;20058;-79
2022/05/23 19:03:52;;;;;;;21.17;16.20;;;;;;;;;;6215741;23;20019;-81